createdAt,value
2023-05-19T00:00:54.408Z,2.25
2023-05-19T00:01:58.748Z,2.75
2023-05-19T00:03:03.224Z,2.25
2023-05-19T00:04:07.500Z,1.50
2023-05-19T00:05:11.427Z,1.50
2023-05-19T00:06:15.556Z,2.00
2023-05-19T00:07:19.645Z,1.75
2023-05-19T00:08:23.716Z,2.00
2023-05-19T00:09:27.602Z,2.00
2023-05-19T00:10:31.984Z,1.50
2023-05-19T00:11:36.170Z,1.50
2023-05-19T00:12:40.389Z,1.25
2023-05-19T00:13:44.669Z,1.25
2023-05-19T00:14:48.675Z,2.25
2023-05-19T00:15:55.763Z,2.50
2023-05-19T00:16:59.908Z,2.50
2023-05-19T00:18:04.014Z,2.00
2023-05-19T00:19:08.331Z,1.50
2023-05-19T00:20:12.669Z,2.00
2023-05-19T00:21:16.985Z,1.75
2023-05-19T00:22:21.185Z,1.50
2023-05-19T00:23:25.290Z,1.50
2023-05-19T00:24:29.299Z,1.75
2023-05-19T00:25:33.498Z,1.50
2023-05-19T00:26:37.614Z,2.00
2023-05-19T00:27:41.707Z,1.00
2023-05-19T00:28:46.434Z,2.00
2023-05-19T00:29:50.523Z,2.00
2023-05-19T00:30:54.633Z,1.25
2023-05-19T00:31:58.866Z,1.50
2023-05-19T00:33:02.871Z,1.00
2023-05-19T00:34:06.941Z,2.00
2023-05-19T00:35:11.350Z,2.00
2023-05-19T00:36:15.221Z,1.75
2023-05-19T00:37:19.355Z,1.00
2023-05-19T00:38:23.663Z,1.25
2023-05-19T00:39:27.866Z,1.25
2023-05-19T00:40:32.337Z,2.50
2023-05-19T00:41:36.622Z,1.50
2023-05-19T00:42:40.910Z,1.00
2023-05-19T00:43:45.323Z,1.00
2023-05-19T00:44:50.026Z,1.50
2023-05-19T00:45:54.579Z,2.50
2023-05-19T00:46:59.143Z,1.50
2023-05-19T00:48:03.821Z,1.00
2023-05-19T00:49:08.387Z,1.00
2023-05-19T00:50:12.555Z,1.50
2023-05-19T00:51:17.066Z,1.50
2023-05-19T00:52:21.409Z,1.25
2023-05-19T00:53:25.409Z,0.50
2023-05-19T00:54:29.717Z,1.50
2023-05-19T00:55:33.827Z,1.00
2023-05-19T00:56:37.857Z,1.00
2023-05-19T00:57:41.833Z,2.50
2023-05-19T00:58:46.143Z,2.00
2023-05-19T00:59:50.343Z,0.25
2023-05-19T01:00:54.463Z,0.50
2023-05-19T01:01:58.667Z,1.75
2023-05-19T01:03:02.942Z,2.00
2023-05-19T01:04:07.221Z,2.25
2023-05-19T01:05:11.488Z,2.00
2023-05-19T01:06:15.809Z,1.00
2023-05-19T01:07:19.884Z,1.00
2023-05-19T01:08:24.188Z,1.50
2023-05-19T01:09:28.497Z,2.00
2023-05-19T01:10:33.227Z,1.25
2023-05-19T01:11:37.532Z,1.00
2023-05-19T01:12:41.758Z,1.50
2023-05-19T01:13:46.140Z,1.25
2023-05-19T01:14:50.263Z,1.00
2023-05-19T01:15:54.618Z,1.00
2023-05-19T01:16:59.023Z,0.50
2023-05-19T01:18:03.310Z,1.00
2023-05-19T01:19:07.717Z,1.50
2023-05-19T01:20:11.898Z,1.25
2023-05-19T01:21:16.200Z,1.00
2023-05-19T01:22:20.612Z,1.50
2023-05-19T01:23:25.145Z,1.50
2023-05-19T01:24:29.428Z,1.50
2023-05-19T01:25:33.741Z,0.75
2023-05-19T01:26:38.146Z,1.50
2023-05-19T01:27:42.574Z,1.00
2023-05-19T01:28:46.873Z,0.75
2023-05-19T01:29:51.079Z,1.00
2023-05-19T01:30:55.234Z,1.00
2023-05-19T01:31:59.971Z,-0.25
2023-05-19T01:33:04.642Z,0.25
2023-05-19T01:34:08.786Z,1.00
2023-05-19T01:35:12.927Z,0.75
2023-05-19T01:36:17.124Z,1.00
2023-05-19T01:37:21.023Z,1.25
2023-05-19T01:38:25.130Z,1.00
2023-05-19T01:39:29.128Z,0.50
2023-05-19T01:40:33.605Z,0.50
2023-05-19T01:41:37.726Z,0.50
2023-05-19T01:42:41.721Z,0.25
2023-05-19T01:43:45.624Z,0.50
2023-05-19T01:44:49.958Z,0.50
2023-05-19T01:45:54.002Z,0.25
2023-05-19T01:46:58.171Z,0.50
2023-05-19T01:48:02.278Z,0.50
2023-05-19T01:49:06.577Z,0.50
2023-05-19T01:50:10.477Z,0.50
2023-05-19T01:51:14.477Z,0.25
2023-05-19T01:52:18.601Z,0.00
2023-05-19T01:53:22.806Z,0.00
2023-05-19T01:54:26.751Z,0.25
2023-05-19T01:55:30.707Z,0.50
2023-05-19T01:56:34.668Z,0.50
2023-05-19T01:57:38.618Z,0.00
2023-05-19T01:58:42.589Z,0.50
2023-05-19T01:59:46.894Z,0.75
2023-05-19T02:00:50.920Z,1.25
2023-05-19T02:01:54.901Z,0.25
2023-05-19T02:02:59.183Z,0.00
2023-05-19T02:04:03.241Z,0.50
2023-05-19T02:05:07.092Z,0.75
2023-05-19T02:06:11.218Z,0.50
2023-05-19T02:07:15.209Z,0.00
2023-05-19T02:08:19.194Z,0.25
2023-05-19T02:09:23.153Z,0.00
2023-05-19T02:10:27.114Z,0.50
2023-05-19T02:11:31.234Z,0.25
2023-05-19T02:12:35.422Z,0.00
2023-05-19T02:13:39.517Z,0.00
2023-05-19T02:14:44.879Z,0.00
2023-05-19T02:15:49.216Z,0.50
2023-05-19T02:16:53.582Z,0.75
2023-05-19T02:17:57.918Z,1.00
2023-05-19T02:19:02.573Z,1.00
2023-05-19T02:20:06.707Z,1.00
2023-05-19T02:21:10.896Z,1.00
2023-05-19T02:22:15.215Z,0.25
2023-05-19T02:23:19.431Z,1.00
2023-05-19T02:24:23.629Z,0.50
2023-05-19T02:25:27.715Z,0.50
2023-05-19T02:26:31.933Z,0.00
2023-05-19T02:27:36.352Z,0.50
2023-05-19T02:28:40.565Z,1.00
2023-05-19T02:29:44.938Z,1.00
2023-05-19T02:30:49.194Z,1.00
2023-05-19T02:31:53.631Z,1.00
2023-05-19T02:32:57.832Z,1.00
2023-05-19T02:34:02.094Z,1.00
2023-05-19T02:35:06.206Z,1.00
2023-05-19T02:36:10.413Z,0.50
2023-05-19T02:37:14.359Z,1.00
2023-05-19T02:38:18.409Z,1.25
2023-05-19T02:39:22.409Z,1.00
2023-05-19T02:40:26.287Z,0.75
2023-05-19T02:41:30.506Z,1.00
2023-05-19T02:42:34.512Z,1.00
2023-05-19T02:43:38.513Z,0.50
2023-05-19T02:44:42.832Z,0.50
2023-05-19T02:45:46.819Z,0.50
2023-05-19T02:46:51.043Z,1.50
2023-05-19T02:47:55.166Z,0.50
2023-05-19T02:48:59.558Z,0.50
2023-05-19T02:50:03.961Z,1.00
2023-05-19T02:51:08.572Z,1.00
2023-05-19T02:52:12.872Z,0.50
2023-05-19T02:53:17.187Z,0.75
2023-05-19T02:54:21.287Z,1.00
2023-05-19T02:55:25.592Z,1.00
2023-05-19T02:56:29.908Z,1.00
2023-05-19T02:57:34.214Z,1.00
2023-05-19T02:58:38.600Z,0.00
2023-05-19T02:59:42.942Z,0.50
2023-05-19T03:00:47.342Z,1.00
2023-05-19T03:01:51.770Z,0.50
2023-05-19T03:02:56.193Z,1.00
2023-05-19T03:04:00.734Z,0.25
2023-05-19T03:05:05.082Z,0.50
2023-05-19T03:06:09.323Z,1.00
2023-05-19T03:07:13.644Z,1.00
2023-05-19T03:08:18.016Z,1.00
2023-05-19T03:09:22.527Z,0.50
2023-05-19T03:10:26.941Z,1.00
2023-05-19T03:11:31.136Z,0.50
2023-05-19T03:12:35.453Z,1.00
2023-05-19T03:13:39.656Z,0.25
2023-05-19T03:14:44.061Z,1.00
2023-05-19T03:15:48.202Z,0.75
2023-05-19T03:16:52.424Z,1.25
2023-05-19T03:17:57.089Z,1.00
2023-05-19T03:19:01.246Z,0.50
2023-05-19T03:20:05.163Z,1.00
2023-05-19T03:21:09.078Z,1.00
2023-05-19T03:22:12.981Z,0.25
2023-05-19T03:23:17.098Z,1.00
2023-05-19T03:24:21.307Z,1.00
2023-05-19T03:25:25.410Z,0.75
2023-05-19T03:26:29.425Z,0.50
2023-05-19T03:27:33.268Z,0.50
2023-05-19T03:28:37.184Z,0.50
2023-05-19T03:29:41.070Z,0.25
2023-05-19T03:30:45.210Z,1.00
2023-05-19T03:31:49.207Z,1.50
2023-05-19T03:32:53.307Z,1.00
2023-05-19T03:33:57.526Z,0.25
2023-05-19T03:35:01.570Z,1.25
2023-05-19T03:36:05.628Z,1.25
2023-05-19T03:37:09.879Z,0.50
2023-05-19T03:38:13.936Z,0.75
2023-05-19T03:39:18.020Z,0.50
2023-05-19T03:40:22.045Z,0.25
2023-05-19T03:41:26.055Z,1.00
2023-05-19T03:42:30.160Z,0.75
2023-05-19T03:43:34.271Z,1.00
2023-05-19T03:44:38.254Z,1.00
2023-05-19T03:45:42.296Z,1.00
2023-05-19T03:46:46.457Z,1.50
2023-05-19T03:47:50.506Z,0.50
2023-05-19T03:48:54.663Z,1.00
2023-05-19T03:49:58.741Z,1.00
2023-05-19T03:51:02.838Z,0.75
2023-05-19T03:52:07.065Z,0.50
2023-05-19T03:53:11.381Z,1.50
2023-05-19T03:54:15.690Z,1.00
2023-05-19T03:55:20.412Z,0.75
2023-05-19T03:56:24.490Z,0.50
2023-05-19T03:57:28.825Z,1.00
2023-05-19T03:58:33.227Z,1.00
2023-05-19T03:59:37.529Z,1.00
2023-05-19T04:00:42.056Z,1.50
2023-05-19T04:01:46.165Z,1.25
2023-05-19T04:02:50.540Z,0.50
2023-05-19T04:03:54.869Z,1.00
2023-05-19T04:04:59.034Z,1.00
2023-05-19T04:06:03.699Z,0.50
2023-05-19T04:07:09.037Z,1.00
2023-05-19T04:08:12.940Z,1.00
2023-05-19T04:09:17.133Z,0.00
2023-05-19T04:10:21.544Z,0.00
2023-05-19T04:11:25.647Z,1.00
2023-05-19T04:12:29.956Z,0.50
2023-05-19T04:13:34.057Z,1.00
2023-05-19T04:14:38.048Z,0.25
2023-05-19T04:15:41.963Z,0.00
2023-05-19T04:16:46.064Z,0.25
2023-05-19T04:17:50.131Z,1.00
2023-05-19T04:18:54.357Z,0.75
2023-05-19T04:19:58.370Z,1.00
2023-05-19T04:21:02.373Z,1.50
2023-05-19T04:22:06.384Z,1.20
2023-05-19T04:23:10.603Z,0.75
2023-05-19T04:24:14.684Z,0.50
2023-05-19T04:25:18.801Z,1.00
2023-05-19T04:26:22.748Z,1.00
2023-05-19T04:27:26.692Z,0.50
2023-05-19T04:28:30.698Z,1.00
2023-05-19T04:29:34.894Z,0.25
2023-05-19T04:30:39.199Z,0.50
2023-05-19T04:31:43.363Z,0.50
2023-05-19T04:32:47.975Z,0.00
2023-05-19T04:33:52.538Z,0.50
2023-05-19T04:34:57.058Z,1.00
2023-05-19T04:36:01.873Z,1.50
2023-05-19T04:37:06.279Z,0.00
2023-05-19T04:38:10.687Z,0.25
2023-05-19T04:39:15.008Z,1.00
2023-05-19T04:40:19.083Z,0.50
2023-05-19T04:41:23.444Z,1.00
2023-05-19T04:42:27.627Z,1.00
2023-05-19T04:43:32.041Z,0.25
2023-05-19T04:44:36.337Z,0.75
2023-05-19T04:45:40.422Z,0.75
2023-05-19T04:46:44.776Z,1.00
2023-05-19T04:47:49.085Z,1.00
2023-05-19T04:48:53.242Z,0.50
2023-05-19T04:49:57.673Z,0.50
2023-05-19T04:51:01.987Z,0.50
2023-05-19T04:52:06.185Z,0.75
2023-05-19T04:53:10.267Z,0.50
2023-05-19T04:54:14.601Z,1.25
2023-05-19T04:55:18.923Z,1.00
2023-05-19T04:56:23.289Z,1.50
2023-05-19T04:57:27.529Z,1.00
2023-05-19T04:58:31.834Z,1.00
2023-05-19T04:59:35.917Z,1.00
2023-05-19T05:00:40.054Z,0.75
2023-05-19T05:01:44.094Z,0.25
2023-05-19T05:02:48.226Z,0.50
2023-05-19T05:03:52.171Z,1.00
2023-05-19T05:04:56.469Z,0.25
2023-05-19T05:06:00.473Z,0.00
2023-05-19T05:07:04.943Z,0.00
2023-05-19T05:08:09.074Z,0.00
2023-05-19T05:09:13.064Z,1.00
2023-05-19T05:10:17.176Z,1.25
2023-05-19T05:11:21.274Z,0.25
2023-05-19T05:12:25.394Z,1.00
2023-05-19T05:13:29.379Z,0.00
2023-05-19T05:14:33.386Z,0.50
2023-05-19T05:15:37.602Z,0.50
2023-05-19T05:16:41.935Z,0.50
2023-05-19T05:17:45.952Z,1.00
2023-05-19T05:18:50.005Z,1.00
2023-05-19T05:19:54.200Z,1.00
2023-05-19T05:20:58.430Z,1.50
2023-05-19T05:22:02.825Z,0.25
2023-05-19T05:23:07.127Z,1.50
2023-05-19T05:24:11.431Z,1.25
2023-05-19T05:25:15.644Z,0.50
2023-05-19T05:26:19.970Z,0.25
2023-05-19T05:27:24.154Z,0.50
2023-05-19T05:28:28.463Z,1.50
2023-05-19T05:29:32.682Z,1.50
2023-05-19T05:30:37.189Z,1.50
2023-05-19T05:31:41.500Z,1.25
2023-05-19T05:32:45.857Z,0.50
2023-05-19T05:33:50.617Z,0.25
2023-05-19T05:34:54.955Z,0.25
2023-05-19T05:35:59.015Z,1.50
2023-05-19T05:37:03.162Z,1.25
2023-05-19T05:38:07.648Z,1.00
2023-05-19T05:39:11.959Z,0.25
2023-05-19T05:40:15.919Z,0.50
2023-05-19T05:41:20.383Z,1.50
2023-05-19T05:42:24.540Z,1.50
2023-05-19T05:43:28.681Z,2.00
2023-05-19T05:44:33.092Z,1.00
2023-05-19T05:45:37.434Z,0.50
2023-05-19T05:46:41.706Z,1.50
2023-05-19T05:47:45.845Z,1.50
2023-05-19T05:48:49.989Z,0.50
2023-05-19T05:49:54.440Z,1.00
2023-05-19T05:50:58.855Z,1.00
2023-05-19T05:52:06.203Z,1.50
2023-05-19T05:53:08.446Z,1.75
2023-05-19T05:54:12.684Z,1.25
2023-05-19T05:55:16.791Z,0.75
2023-05-19T05:56:20.798Z,1.00
2023-05-19T05:57:24.812Z,1.00
2023-05-19T05:58:28.663Z,0.50
2023-05-19T05:59:32.713Z,0.00
2023-05-19T06:00:36.936Z,1.00
2023-05-19T06:01:41.123Z,1.25
2023-05-19T06:02:45.243Z,0.25
2023-05-19T06:03:49.392Z,1.00
2023-05-19T06:04:53.483Z,1.00
2023-05-19T06:05:57.617Z,1.00
2023-05-19T06:07:02.850Z,1.25
2023-05-19T06:08:07.056Z,1.00
2023-05-19T06:09:11.598Z,1.75
2023-05-19T06:10:15.883Z,1.50
2023-05-19T06:11:20.694Z,1.50
2023-05-19T06:12:25.112Z,2.00
2023-05-19T06:13:29.419Z,2.25
2023-05-19T06:14:33.638Z,1.50
2023-05-19T06:15:37.899Z,1.25
2023-05-19T06:16:42.442Z,1.25
2023-05-19T06:17:47.142Z,1.25
2023-05-19T06:18:51.729Z,1.00
2023-05-19T06:19:56.011Z,1.00
2023-05-19T06:21:00.263Z,0.50
2023-05-19T06:22:04.503Z,1.20
2023-05-19T06:23:08.709Z,1.00
2023-05-19T06:24:12.978Z,1.25
2023-05-19T06:25:17.221Z,1.00
2023-05-19T06:26:21.420Z,1.50
2023-05-19T06:27:25.629Z,1.25
2023-05-19T06:28:29.950Z,1.50
2023-05-19T06:29:34.245Z,1.25
2023-05-19T06:30:38.659Z,1.00
2023-05-19T06:31:42.730Z,1.00
2023-05-19T06:32:47.258Z,1.50
2023-05-19T06:33:51.476Z,1.75
2023-05-19T06:34:55.691Z,0.50
2023-05-19T06:35:59.702Z,1.00
2023-05-19T06:37:03.804Z,1.25
2023-05-19T06:38:07.893Z,2.00
2023-05-19T06:39:11.919Z,2.00
2023-05-19T06:40:15.894Z,2.00
2023-05-19T06:41:19.861Z,1.50
2023-05-19T06:42:23.762Z,1.00
2023-05-19T06:43:27.796Z,2.00
2023-05-19T06:44:31.897Z,1.50
2023-05-19T06:45:36.016Z,1.50
2023-05-19T06:46:40.229Z,2.00
2023-05-19T06:47:44.221Z,2.00
2023-05-19T06:48:48.312Z,1.50
2023-05-19T06:49:53.147Z,2.00
2023-05-19T06:50:57.137Z,1.50
2023-05-19T06:52:01.236Z,2.00
2023-05-19T06:53:05.239Z,2.50
2023-05-19T06:54:09.345Z,2.50
2023-05-19T06:55:13.457Z,2.25
2023-05-19T06:56:17.460Z,2.50
2023-05-19T06:57:21.454Z,3.00
2023-05-19T06:58:25.666Z,3.00
2023-05-19T06:59:29.657Z,2.00
2023-05-19T07:00:33.859Z,2.00
2023-05-19T07:01:38.257Z,1.25
2023-05-19T07:02:42.361Z,0.75
2023-05-19T07:03:46.113Z,1.00
2023-05-19T07:04:50.481Z,1.00
2023-05-19T07:05:54.682Z,2.00
2023-05-19T07:06:58.889Z,2.50
2023-05-19T07:08:03.510Z,2.25
2023-05-19T07:09:08.026Z,3.00
2023-05-19T07:10:12.855Z,2.50
2023-05-19T07:11:16.926Z,2.00
2023-05-19T07:12:21.053Z,2.50
2023-05-19T07:13:26.669Z,3.50
2023-05-19T07:14:30.258Z,3.25
2023-05-19T07:15:34.363Z,3.00
2023-05-19T07:16:38.714Z,3.00
2023-05-19T07:17:43.452Z,2.25
2023-05-19T07:18:47.750Z,2.25
2023-05-19T07:19:52.129Z,2.50
2023-05-19T07:20:56.430Z,2.25
2023-05-19T07:22:00.536Z,2.00
2023-05-19T07:23:04.750Z,3.00
2023-05-19T07:24:09.089Z,2.50
2023-05-19T07:25:13.457Z,3.00
2023-05-19T07:26:17.673Z,3.00
2023-05-19T07:27:22.085Z,2.00
2023-05-19T07:28:26.500Z,2.50
2023-05-19T07:29:30.702Z,3.25
2023-05-19T07:30:35.153Z,3.25
2023-05-19T07:31:40.122Z,2.25
2023-05-19T07:32:44.154Z,2.25
2023-05-19T07:33:48.135Z,1.75
2023-05-19T07:34:52.006Z,2.00
2023-05-19T07:35:56.342Z,2.50
2023-05-19T07:37:00.558Z,2.50
2023-05-19T07:38:04.581Z,2.50
2023-05-19T07:39:08.603Z,2.25
2023-05-19T07:40:12.765Z,1.50
2023-05-19T07:41:16.639Z,2.00
2023-05-19T07:42:20.754Z,1.50
2023-05-19T07:43:25.481Z,2.25
2023-05-19T07:44:29.674Z,1.50
2023-05-19T07:45:34.205Z,1.75
2023-05-19T07:46:38.674Z,2.25
2023-05-19T07:47:43.245Z,2.00
2023-05-19T07:48:47.423Z,2.00
2023-05-19T07:49:52.010Z,3.00
2023-05-19T07:50:56.450Z,3.25
2023-05-19T07:52:00.667Z,4.00
2023-05-19T07:53:04.937Z,3.00
2023-05-19T07:54:09.300Z,3.50
2023-05-19T07:55:13.585Z,4.00
2023-05-19T07:56:17.682Z,3.00
2023-05-19T07:57:22.094Z,3.00
2023-05-19T07:58:26.410Z,3.00
2023-05-19T07:59:30.710Z,3.50
2023-05-19T08:00:35.424Z,2.75
2023-05-19T08:01:39.953Z,3.00
2023-05-19T08:02:44.427Z,3.50
2023-05-19T08:03:48.990Z,3.50
2023-05-19T08:04:53.263Z,3.50
2023-05-19T08:05:57.479Z,3.50
2023-05-19T08:07:01.661Z,3.00
2023-05-19T08:08:05.459Z,3.00
2023-05-19T08:09:09.593Z,3.00
2023-05-19T08:10:13.505Z,3.50
2023-05-19T08:11:17.480Z,2.25
2023-05-19T08:12:21.691Z,2.00
2023-05-19T08:13:25.792Z,2.00
2023-05-19T08:14:30.002Z,2.00
2023-05-19T08:15:37.403Z,2.50
2023-05-19T08:16:41.492Z,2.50
2023-05-19T08:17:45.499Z,1.25
2023-05-19T08:18:49.506Z,1.50
2023-05-19T08:19:53.484Z,2.00
2023-05-19T08:20:57.593Z,2.50
2023-05-19T08:22:01.591Z,2.00
2023-05-19T08:23:05.719Z,3.50
2023-05-19T08:24:09.805Z,5.00
2023-05-19T08:25:13.912Z,4.00
2023-05-19T08:26:17.914Z,3.75
2023-05-19T08:27:21.828Z,4.00
2023-05-19T08:28:26.129Z,3.50
2023-05-19T08:29:30.227Z,3.50
2023-05-19T08:30:34.559Z,3.00
2023-05-19T08:31:38.961Z,3.25
2023-05-19T08:32:43.151Z,3.50
2023-05-19T08:33:47.450Z,4.00
2023-05-19T08:34:51.769Z,4.00
2023-05-19T08:35:56.064Z,4.50
2023-05-19T08:37:00.390Z,4.00
2023-05-19T08:38:04.713Z,4.00
2023-05-19T08:39:08.777Z,4.75
2023-05-19T08:40:13.008Z,4.00
2023-05-19T08:41:17.216Z,5.00
2023-05-19T08:42:21.296Z,5.00
2023-05-19T08:43:25.440Z,4.50
2023-05-19T08:44:29.714Z,4.50
2023-05-19T08:45:34.249Z,3.25
2023-05-19T08:46:38.849Z,3.00
2023-05-19T08:47:43.002Z,4.00
2023-05-19T08:48:47.459Z,3.50
2023-05-19T08:49:51.769Z,4.00
2023-05-19T08:50:56.277Z,4.50
2023-05-19T08:52:00.590Z,4.25
2023-05-19T08:53:04.898Z,4.00
2023-05-19T08:54:08.973Z,4.00
2023-05-19T08:55:13.408Z,4.50
2023-05-19T08:56:17.521Z,4.75
2023-05-19T08:57:21.825Z,3.75
2023-05-19T08:58:26.799Z,5.00
2023-05-19T08:59:31.237Z,5.00
2023-05-19T09:00:35.614Z,5.50
2023-05-19T09:01:40.520Z,4.50
2023-05-19T09:02:55.123Z,6.00
2023-05-19T09:03:51.391Z,6.50
2023-05-19T09:04:55.743Z,6.50
2023-05-19T09:06:00.144Z,6.00
2023-05-19T09:07:04.187Z,5.75
2023-05-19T09:08:08.276Z,6.00
2023-05-19T09:09:12.281Z,6.75
2023-05-19T09:10:16.484Z,6.50
2023-05-19T09:11:20.493Z,6.00
2023-05-19T09:12:24.514Z,5.50
2023-05-19T09:13:28.481Z,5.50
2023-05-19T09:14:32.377Z,6.00
2023-05-19T09:15:36.566Z,6.50
2023-05-19T09:16:40.728Z,5.50
2023-05-19T09:17:44.708Z,6.00
2023-05-19T09:18:48.764Z,5.25
2023-05-19T09:19:53.662Z,5.00
2023-05-19T09:20:57.829Z,5.00
2023-05-19T09:22:02.138Z,5.50
2023-05-19T09:23:06.371Z,5.50
2023-05-19T09:24:10.670Z,5.50
2023-05-19T09:25:15.172Z,5.75
2023-05-19T09:26:19.368Z,5.25
2023-05-19T09:27:23.608Z,5.50
2023-05-19T09:28:27.783Z,5.50
2023-05-19T09:29:32.001Z,5.50
2023-05-19T09:30:36.309Z,5.50
2023-05-19T09:31:40.319Z,5.00
2023-05-19T09:32:45.422Z,5.25
2023-05-19T09:33:49.424Z,6.00
2023-05-19T09:34:53.436Z,5.50
2023-05-19T09:35:57.450Z,5.00
2023-05-19T09:37:01.565Z,5.00
2023-05-19T09:38:05.736Z,5.00
2023-05-19T09:39:09.745Z,5.50
2023-05-19T09:40:13.657Z,5.50
2023-05-19T09:41:17.658Z,4.50
2023-05-19T09:42:21.761Z,4.00
2023-05-19T09:43:25.841Z,4.50
2023-05-19T09:44:29.987Z,4.25
2023-05-19T09:45:34.165Z,4.50
2023-05-19T09:46:38.351Z,4.75
2023-05-19T09:47:42.435Z,5.00
2023-05-19T09:48:46.680Z,5.00
2023-05-19T09:49:50.668Z,5.00
2023-05-19T09:50:54.670Z,4.25
2023-05-19T09:51:58.402Z,5.00
2023-05-19T09:53:01.879Z,6.00
2023-05-19T09:54:05.334Z,4.50
2023-05-19T09:55:08.826Z,6.00
2023-05-19T09:56:12.360Z,6.25
2023-05-19T09:57:15.819Z,6.50
2023-05-19T09:58:19.276Z,7.50
2023-05-19T09:59:22.776Z,7.00
2023-05-19T10:00:26.260Z,7.50
2023-05-19T10:01:29.796Z,6.75
2023-05-19T10:02:33.293Z,6.00
2023-05-19T10:03:36.876Z,6.25
2023-05-19T10:04:40.397Z,8.00
2023-05-19T10:05:43.985Z,9.50
2023-05-19T10:06:47.409Z,11.50
2023-05-19T10:07:50.747Z,10.50
2023-05-19T10:08:54.187Z,10.00
2023-05-19T10:09:58.694Z,10.50
2023-05-19T10:11:02.122Z,11.75
2023-05-19T10:12:05.576Z,12.25
2023-05-19T10:13:08.982Z,12.25
2023-05-19T10:14:12.379Z,11.00
2023-05-19T10:15:15.862Z,11.00
2023-05-19T10:16:19.331Z,11.00
2023-05-19T10:17:22.896Z,10.50
2023-05-19T10:18:26.367Z,11.00
2023-05-19T10:19:30.050Z,9.50
2023-05-19T10:20:34.035Z,9.25
2023-05-19T10:21:37.734Z,11.00
2023-05-19T10:22:41.205Z,11.00
2023-05-19T10:23:44.686Z,13.00
2023-05-19T10:24:48.204Z,13.50
2023-05-19T10:25:51.628Z,14.50
2023-05-19T10:26:55.134Z,13.50
2023-05-19T10:27:58.577Z,13.00
2023-05-19T10:29:02.091Z,12.50
2023-05-19T10:30:05.608Z,12.75
2023-05-19T10:31:09.119Z,13.00
2023-05-19T10:32:12.743Z,12.00
2023-05-19T10:33:16.301Z,12.00
2023-05-19T10:34:19.849Z,12.00
2023-05-19T10:35:23.286Z,12.00
2023-05-19T10:36:26.747Z,10.75
2023-05-19T10:37:30.415Z,10.00
2023-05-19T10:38:33.921Z,10.00
2023-05-19T10:39:37.508Z,10.50
2023-05-19T10:40:41.204Z,11.00
2023-05-19T10:41:45.125Z,12.25
2023-05-19T10:42:49.540Z,11.00
2023-05-19T10:43:53.273Z,10.00
2023-05-19T10:44:57.011Z,10.50
2023-05-19T10:46:00.607Z,11.75
2023-05-19T10:47:04.413Z,12.00
2023-05-19T10:48:08.327Z,13.00
2023-05-19T10:49:12.035Z,11.75
2023-05-19T10:50:16.002Z,13.00
2023-05-19T10:51:19.802Z,12.00
2023-05-19T10:52:23.649Z,11.00
2023-05-19T10:53:27.388Z,11.50
2023-05-19T10:54:31.158Z,12.50
2023-05-19T10:55:35.098Z,13.00
2023-05-19T10:56:38.782Z,11.50
2023-05-19T10:57:42.478Z,11.75
2023-05-19T10:58:46.176Z,11.50
2023-05-19T10:59:49.816Z,13.50
2023-05-19T11:00:53.522Z,12.00
2023-05-19T11:01:57.240Z,11.50
2023-05-19T11:03:01.032Z,11.00
2023-05-19T11:04:04.734Z,9.00
2023-05-19T11:05:08.480Z,9.75
2023-05-19T11:06:12.296Z,9.50
2023-05-19T11:07:16.032Z,9.00
2023-05-19T11:08:19.689Z,8.50
2023-05-19T11:09:34.210Z,8.50
2023-05-19T11:10:28.306Z,7.75
2023-05-19T11:12:35.718Z,9.75
2023-05-19T11:13:39.400Z,8.50
2023-05-19T11:14:43.099Z,9.00
2023-05-19T11:15:46.792Z,9.50
2023-05-19T11:16:50.581Z,7.50
2023-05-19T11:17:54.355Z,8.50
2023-05-19T11:18:58.263Z,8.75
2023-05-19T11:20:01.916Z,8.50
2023-05-19T11:21:05.723Z,8.25
2023-05-19T11:22:09.402Z,8.75
2023-05-19T11:23:13.094Z,8.00
2023-05-19T11:24:16.835Z,8.50
2023-05-19T11:25:20.413Z,8.50
2023-05-19T11:26:24.047Z,8.75
2023-05-19T11:27:27.459Z,9.00
2023-05-19T11:28:30.851Z,8.75
2023-05-19T11:29:34.832Z,9.20
2023-05-19T11:30:38.346Z,9.00
2023-05-19T11:31:41.847Z,7.75
2023-05-19T11:32:45.455Z,7.50
2023-05-19T11:33:48.948Z,8.75
2023-05-19T11:34:52.538Z,9.00
2023-05-19T11:35:56.067Z,8.50
2023-05-19T11:36:59.585Z,9.00
2023-05-19T11:38:03.077Z,10.00
2023-05-19T11:39:06.620Z,10.00
2023-05-19T11:40:10.051Z,9.50
2023-05-19T11:41:13.584Z,9.25
2023-05-19T11:42:17.006Z,9.00
2023-05-19T11:43:20.431Z,9.00
2023-05-19T11:44:23.912Z,9.25
2023-05-19T11:45:27.472Z,8.50
2023-05-19T11:46:31.034Z,7.50
2023-05-19T11:47:46.506Z,9.50
2023-05-19T11:48:39.725Z,9.00
2023-05-19T11:49:43.427Z,8.50
2023-05-19T11:50:46.870Z,9.00
2023-05-19T11:51:50.591Z,8.00
2023-05-19T11:52:54.334Z,8.50
2023-05-19T11:53:58.064Z,9.75
2023-05-19T11:55:01.840Z,9.00
2023-05-19T11:56:05.604Z,7.50
2023-05-19T11:57:09.263Z,9.00
2023-05-19T11:58:12.732Z,9.75
2023-05-19T11:59:16.379Z,11.00
2023-05-19T12:00:20.217Z,11.00
2023-05-19T12:01:23.897Z,9.50
2023-05-19T12:02:27.809Z,10.25
2023-05-19T12:03:31.863Z,10.50
2023-05-19T12:04:35.558Z,10.00
2023-05-19T12:05:42.075Z,10.00
2023-05-19T12:06:44.261Z,9.50
2023-05-19T12:07:48.033Z,10.25
2023-05-19T12:08:51.796Z,10.00
2023-05-19T12:09:55.504Z,7.75
2023-05-19T12:10:59.244Z,9.75
2023-05-19T12:12:03.002Z,9.50
2023-05-19T12:13:06.641Z,10.00
2023-05-19T12:14:10.324Z,8.00
2023-05-19T12:15:14.242Z,9.00
2023-05-19T12:16:17.971Z,9.50
2023-05-19T12:17:21.791Z,9.00
2023-05-19T12:18:25.448Z,8.50
2023-05-19T12:19:29.337Z,7.50
2023-05-19T12:20:33.393Z,8.00
2023-05-19T12:21:37.194Z,7.00
2023-05-19T12:22:40.903Z,7.50
2023-05-19T12:23:44.557Z,8.00
2023-05-19T12:24:48.247Z,8.00
2023-05-19T12:25:51.915Z,8.00
2023-05-19T12:26:55.608Z,7.50
2023-05-19T12:27:59.282Z,7.00
2023-05-19T12:29:02.935Z,8.25
2023-05-19T12:30:06.991Z,8.00
2023-05-19T12:31:10.731Z,7.00
2023-05-19T12:32:14.602Z,7.00
2023-05-19T12:33:18.237Z,6.75
2023-05-19T12:34:21.893Z,7.50
2023-05-19T12:35:25.704Z,7.50
2023-05-19T12:36:29.377Z,8.25
2023-05-19T12:37:33.075Z,8.50
2023-05-19T12:38:36.728Z,8.00
2023-05-19T12:39:40.422Z,9.25
2023-05-19T12:40:44.257Z,9.00
2023-05-19T12:41:47.890Z,9.50
2023-05-19T12:42:51.614Z,10.00
2023-05-19T12:43:55.193Z,9.25
2023-05-19T12:44:59.311Z,8.50
2023-05-19T12:46:03.212Z,9.25
2023-05-19T12:47:06.640Z,9.00
2023-05-19T12:48:10.113Z,10.50
2023-05-19T12:49:13.611Z,9.25
2023-05-19T12:50:16.973Z,9.00
2023-05-19T12:51:20.397Z,10.00
2023-05-19T12:52:24.073Z,10.50
2023-05-19T12:53:27.492Z,10.50
2023-05-19T12:54:30.949Z,10.75
2023-05-19T12:55:34.485Z,9.75
2023-05-19T12:56:37.936Z,11.50
2023-05-19T12:57:41.351Z,11.25
2023-05-19T12:58:44.867Z,11.25
2023-05-19T12:59:48.305Z,10.25
2023-05-19T13:00:51.817Z,9.50
2023-05-19T13:01:55.336Z,11.25
2023-05-19T13:02:58.937Z,11.50
2023-05-19T13:04:04.617Z,12.00
2023-05-19T13:05:07.158Z,11.00
2023-05-19T13:06:10.582Z,11.50
2023-05-19T13:07:14.072Z,11.50
2023-05-19T13:08:17.557Z,11.25
2023-05-19T13:09:21.001Z,11.75
2023-05-19T13:10:24.525Z,13.00
2023-05-19T13:11:31.180Z,12.75
2023-05-19T13:12:34.853Z,11.75
2023-05-19T13:13:38.682Z,13.00
2023-05-19T13:14:42.342Z,12.50
2023-05-19T13:15:46.038Z,12.00
2023-05-19T13:16:49.850Z,11.50
2023-05-19T13:17:53.616Z,12.50
2023-05-19T13:18:57.414Z,12.00
2023-05-19T13:20:01.105Z,13.50
2023-05-19T13:21:04.711Z,13.50
2023-05-19T13:22:08.535Z,12.75
2023-05-19T13:23:12.264Z,13.00
2023-05-19T13:24:15.914Z,12.75
2023-05-19T13:25:19.580Z,12.50
2023-05-19T13:26:23.228Z,13.50
2023-05-19T13:27:27.138Z,13.00
2023-05-19T13:28:30.798Z,13.50
2023-05-19T13:29:34.528Z,12.75
2023-05-19T13:30:38.393Z,12.00
2023-05-19T13:31:42.267Z,11.00
2023-05-19T13:32:46.048Z,11.25
2023-05-19T13:33:49.873Z,12.00
2023-05-19T13:34:53.606Z,12.00
2023-05-19T13:35:57.338Z,12.50
2023-05-19T13:37:01.365Z,11.25
2023-05-19T13:38:05.123Z,12.00
2023-05-19T13:39:08.757Z,11.00
2023-05-19T13:40:12.419Z,12.25
2023-05-19T13:41:16.201Z,11.00
2023-05-19T13:42:19.901Z,11.25
2023-05-19T13:43:23.643Z,11.00
2023-05-19T13:44:27.325Z,10.75
2023-05-19T13:45:30.998Z,11.00
2023-05-19T13:46:44.613Z,10.50
2023-05-19T13:47:39.652Z,11.25
2023-05-19T13:48:43.527Z,9.75
2023-05-19T13:49:47.265Z,10.50
2023-05-19T13:50:50.987Z,11.00
2023-05-19T13:51:54.626Z,11.00
2023-05-19T13:52:58.288Z,11.00
2023-05-19T13:54:02.078Z,11.00
2023-05-19T13:55:05.791Z,12.00
2023-05-19T13:56:09.261Z,12.00
2023-05-19T13:57:13.132Z,12.50
2023-05-19T13:58:16.886Z,13.00
2023-05-19T13:59:20.576Z,13.00
2023-05-19T14:00:24.313Z,13.00
2023-05-19T14:01:28.030Z,12.00
2023-05-19T14:02:31.699Z,11.50
2023-05-19T14:03:35.500Z,11.25
2023-05-19T14:04:38.914Z,12.00
2023-05-19T14:05:42.228Z,12.00
2023-05-19T14:06:45.546Z,11.75
2023-05-19T14:07:48.836Z,12.50
2023-05-19T14:08:52.217Z,12.00